Time;durP1;ratioP1;P1;durP2;ratioP2;P2;SDS_P1;SDS_P2;PMS_P1;PMS_P2;Temp;Humidity;BMP_temperature;BMP_pressure;BME280_temperature;BME280_humidity;BME280_pressure;Samples;Min_cycle;Max_cycle;Signal;HPM_P1;HPM_P2
2021/12/02 00:01:09;;;;;;;6.97;1.60;;;;;;;4.71;100.00;99750.25;5033335;28;20053;-51
2021/12/02 00:03:35;;;;;;;6.88;1.90;;;;;;;5.03;100.00;99799.78;5035028;28;20038;-49
2021/12/02 00:06:02;;;;;;;15.50;2.95;;;;;;;5.04;100.00;99799.78;5034324;28;20447;-49
2021/12/02 00:08:28;;;;;;;14.93;2.00;;;;;;;5.13;100.00;99810.84;5034029;28;20033;-50
2021/12/02 00:10:53;;;;;;;10.68;1.58;;;;;;;4.96;100.00;99775.63;5035186;28;20524;-50
2021/12/02 00:13:23;;;;;;;8.25;2.28;;;;;;;5.18;100.00;99814.19;5034940;28;20030;-48
2021/12/02 00:16:15;;;;;;;6.70;2.08;;;;;;;4.79;100.00;99762.19;5035080;28;20061;-51
2021/12/02 00:21:23;;;;;;;9.55;1.85;;;;;;;4.60;100.00;99762.69;5035074;28;20457;-50
2021/12/02 00:24:02;;;;;;;6.78;1.42;;;;;;;4.83;100.00;99830.75;5035129;28;20029;-50
2021/12/02 00:26:29;;;;;;;8.65;1.65;;;;;;;4.71;100.00;99829.31;5034851;28;20030;-52
2021/12/02 00:28:58;;;;;;;7.72;1.40;;;;;;;4.57;100.00;99810.53;5034773;28;20032;-47
2021/12/02 00:31:29;;;;;;;6.53;1.38;;;;;;;4.41;100.00;99788.34;5017438;28;20034;-49
2021/12/02 00:33:57;;;;;;;8.98;1.52;;;;;;;4.70;100.00;99822.38;5035129;28;20091;-53
2021/12/02 00:36:24;;;;;;;8.13;1.45;;;;;;;4.77;100.00;99829.16;5033266;28;20595;-50
2021/12/02 00:38:51;;;;;;;7.43;1.60;;;;;;;4.82;100.00;99821.19;5033216;28;20033;-49
2021/12/02 00:41:19;;;;;;;9.82;1.42;;;;;;;4.54;100.00;99767.19;5034824;28;20071;-49
2021/12/02 00:43:50;;;;;;;8.80;2.03;;;;;;;4.93;100.00;99834.84;5033506;28;20131;-49
2021/12/02 00:46:18;;;;;;;7.43;1.60;;;;;;;5.03;100.00;99838.91;5034687;28;20037;-49
2021/12/02 00:48:45;;;;;;;8.00;1.88;;;;;;;4.92;100.00;99796.63;5034410;28;20859;-49
2021/12/02 00:51:11;;;;;;;8.98;1.60;;;;;;;4.98;100.00;99818.19;5033195;28;20026;-47
2021/12/02 00:53:42;;;;;;;9.38;1.75;;;;;;;4.85;100.00;99822.00;5033003;28;20095;-48
2021/12/02 00:56:10;;;;;;;8.73;1.55;;;;;;;4.76;100.00;99832.66;5034576;28;20026;-49
2021/12/02 00:58:36;;;;;;;8.38;1.92;;;;;;;4.45;100.00;99776.97;5033036;28;20030;-49
2021/12/02 01:01:02;;;;;;;9.52;1.45;;;;;;;4.80;100.00;99838.66;5034271;28;20065;-50
2021/12/02 01:03:35;;;;;;;7.18;1.30;;;;;;;4.82;100.00;99842.06;5016622;28;20057;-49
2021/12/02 01:06:03;;;;;;;8.05;1.02;;;;;;;4.80;100.00;99834.28;5032948;28;20034;-49
2021/12/02 01:08:29;;;;;;;8.52;0.98;;;;;;;4.83;100.00;99844.66;5034036;28;20029;-48
2021/12/02 01:10:55;;;;;;;6.93;1.17;;;;;;;4.54;100.00;99795.84;5033066;28;20044;-48
2021/12/02 01:13:21;;;;;;;3.53;0.70;;;;;;;4.76;100.00;99850.88;5033985;28;20029;-48
2021/12/02 01:15:47;;;;;;;4.18;1.40;;;;;;;4.34;100.00;99784.19;5032660;28;20029;-49
2021/12/02 01:18:13;;;;;;;5.03;1.20;;;;;;;4.50;100.00;99838.50;5033933;28;20056;-47
2021/12/02 01:20:39;;;;;;;6.20;1.30;;;;;;;4.28;100.00;99820.81;5033530;28;20049;-48
2021/12/02 01:23:05;;;;;;;3.65;1.10;;;;;;;3.93;100.00;99799.03;5034050;28;20041;-47
2021/12/02 01:25:31;;;;;;;6.45;1.35;;;;;;;4.12;100.00;99832.44;5032737;28;20391;-48
2021/12/02 01:27:57;;;;;;;8.00;1.35;;;;;;;4.08;100.00;99833.41;5033928;28;20037;-48
2021/12/02 01:30:25;;;;;;;9.38;1.20;;;;;;;3.66;100.00;99772.72;5032582;28;20033;-53
2021/12/02 01:32:52;;;;;;;8.02;1.25;;;;;;;3.54;100.00;99758.22;5032454;28;20036;-50
2021/12/02 01:35:19;;;;;;;10.30;1.88;;;;;;;3.99;100.00;99829.25;5032309;28;20033;-48
2021/12/02 01:37:48;;;;;;;11.57;1.40;;;;;;;4.01;100.00;99826.63;5032475;28;20033;-49
2021/12/02 01:40:13;;;;;;;10.52;1.30;;;;;;;4.01;100.00;99824.88;5033748;28;20087;-47
2021/12/02 01:42:39;;;;;;;6.05;1.27;;;;;;;4.02;100.00;99834.41;5016001;28;20049;-48
2021/12/02 01:45:05;;;;;;;10.90;2.15;;;;;;;4.05;100.00;99828.28;5015571;28;20040;-48
2021/12/02 01:47:32;;;;;;;8.88;1.63;;;;;;;4.22;100.00;99839.16;5033102;28;20029;-50
2021/12/02 01:50:02;;;;;;;6.88;1.33;;;;;;;3.97;100.00;99778.94;5032450;28;20128;-50
2021/12/02 01:52:31;;;;;;;13.55;1.90;;;;;;;4.33;100.00;99831.97;5032142;28;20033;-47
2021/12/02 01:55:11;;;;;;;8.18;1.10;;;;;;;4.30;100.00;99835.50;5033289;28;20041;-51
2021/12/02 01:57:43;;;;;;;9.40;1.48;;;;;;;3.85;100.00;99771.44;5033144;28;20323;-47
2021/12/02 02:00:18;;;;;;;10.50;1.75;;;;;;;4.17;100.00;99847.09;5033018;28;20116;-52
2021/12/02 02:02:43;;;;;;;11.07;1.77;;;;;;;3.85;100.00;99789.66;5033118;28;20036;-50
2021/12/02 02:05:13;;;;;;;4.05;1.10;;;;;;;4.02;100.00;99817.94;5031993;28;20037;-48
2021/12/02 02:07:49;;;;;;;5.43;1.30;;;;;;;4.29;100.00;99853.78;5031889;28;20071;-48
2021/12/02 02:10:16;;;;;;;6.15;1.08;;;;;;;4.33;100.00;99861.47;5032704;28;20117;-50
2021/12/02 02:12:41;;;;;;;11.82;1.38;;;;;;;4.02;100.00;99813.59;5032753;28;20057;-49
2021/12/02 02:15:07;;;;;;;9.95;1.40;;;;;;;4.10;100.00;99814.25;5032909;28;20451;-47
2021/12/02 02:17:48;;;;;;;9.20;1.50;;;;;;;4.44;100.00;99851.66;5032959;28;20481;-50
2021/12/02 02:20:14;;;;;;;9.32;1.52;;;;;;;4.58;100.00;99860.91;5032649;28;20084;-48
2021/12/02 02:22:40;;;;;;;8.70;1.23;;;;;;;4.17;100.00;99789.81;5032847;28;20125;-49
2021/12/02 02:25:12;;;;;;;3.58;0.90;;;;;;;4.57;100.00;99867.03;5031403;28;20124;-49
2021/12/02 02:27:38;;;;;;;3.53;0.60;;;;;;;4.50;100.00;99876.72;5031717;28;20425;-50
2021/12/02 02:30:04;;;;;;;6.32;0.90;;;;;;;4.50;100.00;99882.78;5031457;28;20117;-50
2021/12/02 02:32:32;;;;;;;3.15;0.82;;;;;;;4.09;100.00;99806.47;5031379;28;20107;-48
2021/12/02 02:34:58;;;;;;;3.90;0.88;;;;;;;4.04;100.00;99803.97;5032437;28;20041;-49
2021/12/02 02:37:24;;;;;;;4.90;1.25;;;;;;;4.30;100.00;99853.72;5032461;28;20087;-48
2021/12/02 02:39:49;;;;;;;5.75;1.00;;;;;;;4.33;100.00;99864.09;5032246;28;20125;-50
2021/12/02 02:42:15;;;;;;;3.28;0.60;;;;;;;4.31;100.00;99852.84;5032327;28;20041;-51
2021/12/02 02:44:40;;;;;;;3.38;0.50;;;;;;;4.45;100.00;99879.44;5031261;28;20037;-50
2021/12/02 02:47:06;;;;;;;4.93;0.90;;;;;;;4.15;100.00;99808.94;5032591;28;20083;-49
2021/12/02 02:49:31;;;;;;;4.10;0.85;;;;;;;4.29;100.00;99831.16;5032226;28;20037;-51
2021/12/02 02:51:57;;;;;;;2.15;0.40;;;;;;;4.58;100.00;99871.34;5032407;28;20069;-53
2021/12/02 02:54:23;;;;;;;3.80;1.10;;;;;;;4.67;100.00;99885.00;5032159;28;20068;-49
2021/12/02 02:57:01;;;;;;;7.03;1.10;;;;;;;4.71;100.00;99889.25;5031314;28;20029;-49
2021/12/02 02:59:55;;;;;;;3.65;1.08;;;;;;;4.43;100.00;99844.75;5032235;28;20038;-50
2021/12/02 03:07:35;;;;;;;9.02;1.05;;;;;;;4.43;100.00;99881.25;5031017;28;20138;-50
2021/12/02 03:13:39;;;;;;;6.90;0.98;;;;;;;4.12;100.00;99830.69;5030989;28;20489;-50
2021/12/02 03:18:15;;;;;;;5.03;0.70;;;;;;;4.30;100.00;99897.16;5032324;28;20404;-53
2021/12/02 03:20:41;;;;;;;5.35;0.55;;;;;;;4.05;100.00;99883.81;5031657;28;20061;-51
2021/12/02 03:23:07;;;;;;;3.35;0.88;;;;;;;3.55;100.00;99819.78;5031695;28;20045;-53
2021/12/02 03:25:33;;;;;;;4.93;0.50;;;;;;;3.82;100.00;99857.41;5030685;28;20128;-52
2021/12/02 03:27:58;;;;;;;7.55;0.95;;;;;;;3.60;100.00;99843.97;5031987;28;20112;-50
2021/12/02 03:30:23;;;;;;;4.30;1.13;;;;;;;3.59;100.00;99844.84;5032560;28;20383;-51
2021/12/02 03:32:49;;;;;;;4.03;0.60;;;;;;;3.22;100.00;99795.28;5032025;28;20073;-50
2021/12/02 03:35:14;;;;;;;4.72;2.30;;;;;;;3.19;100.00;99816.16;5031990;28;20037;-48
2021/12/02 03:37:39;;;;;;;5.80;0.85;;;;;;;3.40;100.00;99861.69;5032158;28;20049;-49
2021/12/02 03:40:06;;;;;;;7.00;1.08;;;;;;;3.42;100.00;99841.72;5032199;28;20045;-50
2021/12/02 03:42:31;;;;;;;5.35;1.02;;;;;;;3.11;100.00;99780.78;5030863;28;20037;-50
2021/12/02 03:44:57;;;;;;;4.45;0.60;;;;;;;3.48;100.00;99840.72;5031829;28;20033;-52
2021/12/02 03:47:22;;;;;;;6.55;1.15;;;;;;;3.47;100.00;99839.03;5031845;28;20030;-50
2021/12/02 03:49:47;;;;;;;8.85;0.98;;;;;;;2.79;100.00;99727.66;5031932;28;20037;-48
2021/12/02 03:52:13;;;;;;;5.90;1.48;;;;;;;3.27;100.00;99802.97;5031812;28;20121;-51
2021/12/02 03:54:38;;;;;;;9.25;1.92;;;;;;;3.45;100.00;99841.66;5031673;28;20080;-50
2021/12/02 03:57:04;;;;;;;9.63;1.52;;;;;;;3.63;100.00;99862.13;5031866;28;20044;-51
2021/12/02 03:59:29;;;;;;;9.00;0.95;;;;;;;3.46;100.00;99825.16;5031932;28;20029;-49
2021/12/02 04:01:54;;;;;;;6.25;1.20;;;;;;;3.33;100.00;99808.94;5031609;28;20039;-49
2021/12/02 04:04:20;;;;;;;3.45;0.80;;;;;;;3.42;100.00;99829.56;5031803;28;20033;-49
2021/12/02 04:06:45;;;;;;;7.93;1.50;;;;;;;3.50;100.00;99841.59;5031775;28;20037;-52
2021/12/02 04:09:18;;;;;;;6.10;1.10;;;;;;;3.34;100.00;99818.47;5030032;28;20400;-50
2021/12/02 04:11:53;;;;;;;10.45;1.20;;;;;;;3.64;100.00;99873.38;5032524;28;20026;-50
2021/12/02 04:14:25;;;;;;;7.13;1.02;;;;;;;3.61;100.00;99865.63;5035053;28;20404;-52
2021/12/02 04:16:55;;;;;;;5.88;1.17;;;;;;;3.61;100.00;99868.25;5035142;28;20044;-49
2021/12/02 04:19:22;;;;;;;3.25;0.98;;;;;;;3.27;100.00;99829.00;5035096;28;20037;-55
2021/12/02 04:21:47;;;;;;;6.03;0.77;;;;;;;3.08;100.00;99853.63;5034777;28;20088;-50
2021/12/02 04:24:13;;;;;;;4.45;0.88;;;;;;;3.22;100.00;99904.50;5035166;28;20113;-53
2021/12/02 04:26:40;;;;;;;4.07;0.60;;;;;;;3.02;100.00;99879.72;5033966;28;20040;-53
2021/12/02 04:29:05;;;;;;;1.42;0.60;;;;;;;3.05;100.00;99882.28;5033808;28;20064;-50
2021/12/02 04:31:31;;;;;;;1.10;0.30;;;;;;;2.58;100.00;99811.16;5033756;28;20069;-53
2021/12/02 04:33:56;;;;;;;1.13;0.38;;;;;;;2.46;100.00;99810.50;5034743;28;20037;-52
2021/12/02 04:36:21;;;;;;;2.63;0.30;;;;;;;2.62;100.00;99858.75;5034616;28;20519;-52
2021/12/02 04:38:47;;;;;;;0.80;0.30;;;;;;;2.61;100.00;99867.41;5033351;28;20481;-47
2021/12/02 04:41:14;;;;;;;3.55;0.20;;;;;;;2.16;100.00;99801.47;5034633;28;20037;-50
2021/12/02 04:43:39;;;;;;;2.72;0.50;;;;;;;2.08;100.00;99808.50;5034624;28;20469;-50
2021/12/02 04:46:05;;;;;;;1.50;0.40;;;;;;;2.32;100.00;99854.88;5034724;28;20033;-54
2021/12/02 04:48:30;;;;;;;1.50;0.47;;;;;;;1.93;100.00;99803.50;5034566;28;20064;-48
2021/12/02 04:50:55;;;;;;;2.97;0.47;;;;;;;2.15;100.00;99847.34;5034392;28;20091;-48
2021/12/02 04:53:21;;;;;;;3.63;1.02;;;;;;;2.24;100.00;99870.59;5034697;28;20045;-53
2021/12/02 04:55:46;;;;;;;3.80;0.52;;;;;;;2.22;100.00;99859.34;5034404;28;20477;-51
2021/12/02 04:58:12;;;;;;;3.33;0.68;;;;;;;2.13;100.00;99859.47;5034516;28;20049;-49
2021/12/02 05:00:37;;;;;;;3.35;0.70;;;;;;;1.79;100.00;99805.44;5034364;28;20033;-49
2021/12/02 05:03:04;;;;;;;4.95;1.10;;;;;;;1.88;100.00;99819.16;5034713;28;20048;-52
2021/12/02 05:05:29;;;;;;;7.75;0.93;;;;;;;1.82;100.00;99803.69;5034206;28;20404;-49
2021/12/02 05:07:55;;;;;;;8.52;1.70;;;;;;;1.81;100.00;99811.50;5034104;28;20033;-52
2021/12/02 05:10:21;;;;;;;5.30;1.00;;;;;;;2.16;100.00;99862.00;5032678;28;20038;-50
2021/12/02 05:12:47;;;;;;;5.82;1.20;;;;;;;2.27;100.00;99851.50;5033982;28;20045;-50
2021/12/02 05:15:13;;;;;;;9.20;1.20;;;;;;;2.32;100.00;99847.09;5032678;28;20128;-49
2021/12/02 05:17:38;;;;;;;9.75;1.50;;;;;;;2.10;100.00;99815.38;5033013;28;20120;-52
2021/12/02 05:20:05;;;;;;;9.82;1.55;;;;;;;2.38;100.00;99857.38;5033634;28;20117;-49
2021/12/02 05:22:30;;;;;;;10.05;1.88;;;;;;;2.16;100.00;99804.06;5032201;28;20058;-50
2021/12/02 05:24:56;;;;;;;10.20;1.77;;;;;;;2.30;100.00;99806.44;5032991;28;20045;-51
2021/12/02 05:27:21;;;;;;;9.13;1.45;;;;;;;2.93;100.00;99874.69;5032490;28;20029;-51
2021/12/02 05:29:46;;;;;;;11.02;1.70;;;;;;;2.73;100.00;99831.72;5033725;28;20037;-51
2021/12/02 05:32:12;;;;;;;12.02;1.38;;;;;;;3.22;100.00;99891.50;5032289;28;20495;-49
2021/12/02 05:34:37;;;;;;;6.50;1.63;;;;;;;3.37;100.00;99904.25;5033461;28;20048;-47
2021/12/02 05:37:03;;;;;;;11.38;2.28;;;;;;;3.64;100.00;99894.22;5033531;28;20091;-48
2021/12/02 05:39:28;;;;;;;11.90;1.90;;;;;;;3.79;100.00;99891.31;5033566;28;20489;-48
2021/12/02 05:41:54;;;;;;;7.15;1.60;;;;;;;3.88;100.00;99901.53;5033516;28;20044;-49
2021/12/02 05:44:22;;;;;;;11.60;1.92;;;;;;;3.83;100.00;99883.41;5033603;28;20128;-51
2021/12/02 05:46:48;;;;;;;10.82;2.00;;;;;;;4.07;100.00;99915.03;5032370;28;20033;-51
2021/12/02 05:49:13;;;;;;;7.65;1.77;;;;;;;3.81;100.00;99853.94;5033358;28;20473;-49
2021/12/02 05:51:41;;;;;;;12.75;1.65;;;;;;;4.11;100.00;99898.47;5033154;28;20029;-49
2021/12/02 05:54:07;;;;;;;10.60;1.52;;;;;;;4.06;100.00;99901.13;5031986;28;20049;-52
2021/12/02 05:56:32;;;;;;;15.15;2.00;;;;;;;4.07;100.00;99933.25;5032022;28;20553;-51
2021/12/02 05:58:58;;;;;;;12.45;2.15;;;;;;;3.77;100.00;99886.13;5033271;28;20524;-46
2021/12/02 06:01:23;;;;;;;12.80;1.83;;;;;;;3.86;100.00;99883.34;5032951;28;20029;-48
2021/12/02 06:03:48;;;;;;;11.25;2.17;;;;;;;4.20;100.00;99940.81;5032941;28;20033;-51
2021/12/02 06:06:16;;;;;;;11.82;2.00;;;;;;;4.09;100.00;99928.84;5032477;28;20033;-51
2021/12/02 06:08:42;;;;;;;8.40;1.73;;;;;;;3.65;100.00;99880.31;5032765;28;20543;-51
2021/12/02 06:11:07;;;;;;;10.57;1.30;;;;;;;3.92;100.00;99950.91;5031715;28;20110;-49
2021/12/02 06:13:32;;;;;;;2.78;0.82;;;;;;;3.79;100.00;99946.84;5032793;28;20052;-50
2021/12/02 06:15:58;;;;;;;5.78;1.00;;;;;;;3.72;100.00;99992.06;5031663;28;20477;-51
2021/12/02 06:18:23;;;;;;;3.60;0.70;;;;;;;3.25;100.00;99929.59;5032759;28;20389;-50
2021/12/02 06:20:53;;;;;;;3.00;0.77;;;;;;;3.39;100.00;99970.09;5010016;28;20387;-50
2021/12/02 06:23:18;;;;;;;2.60;0.93;;;;;;;3.19;100.00;99929.69;5032934;28;20123;-49
2021/12/02 06:25:44;;;;;;;2.60;0.73;;;;;;;3.18;100.00;99949.63;5032599;28;20049;-50
2021/12/02 06:28:09;;;;;;;5.25;0.93;;;;;;;3.12;100.00;99949.78;5032674;28;20103;-50
2021/12/02 06:30:35;;;;;;;6.90;1.25;;;;;;;2.98;100.00;99936.13;5031434;28;20073;-51
2021/12/02 06:33:00;;;;;;;2.40;0.70;;;;;;;2.94;100.00;99944.88;5032324;28;20037;-49
2021/12/02 06:35:26;;;;;;;2.75;0.98;;;;;;;2.93;100.00;99953.53;5032326;28;20060;-48
2021/12/02 06:37:52;;;;;;;4.70;0.70;;;;;;;2.79;100.00;99937.28;5032394;28;20362;-49
2021/12/02 06:40:18;;;;;;;3.60;1.00;;;;;;;2.51;100.00;99891.84;5032392;28;20037;-54
2021/12/02 06:42:43;;;;;;;3.83;1.00;;;;;;;2.80;100.00;99929.47;5031090;28;20090;-52
2021/12/02 06:45:10;;;;;;;2.78;0.85;;;;;;;2.77;100.00;99933.88;5032128;28;20030;-50
2021/12/02 06:47:39;;;;;;;3.90;0.85;;;;;;;2.76;100.00;99961.59;5030733;28;20052;-51
2021/12/02 06:50:07;;;;;;;5.20;0.77;;;;;;;2.66;100.00;99948.75;5031830;28;20037;-50
2021/12/02 06:52:32;;;;;;;6.05;1.13;;;;;;;2.64;100.00;99958.31;5031043;28;20034;-50
2021/12/02 06:54:58;;;;;;;4.60;0.95;;;;;;;2.68;100.00;99973.84;5030846;28;20046;-48
2021/12/02 06:57:24;;;;;;;5.13;1.17;;;;;;;2.63;100.00;99953.97;5030962;28;20033;-51
2021/12/02 06:59:49;;;;;;;4.03;1.10;;;;;;;2.65;100.00;99963.50;5032135;28;20083;-55
2021/12/02 07:02:15;;;;;;;5.18;1.23;;;;;;;2.72;100.00;99980.69;5032219;28;20065;-51
2021/12/02 07:04:40;;;;;;;5.43;1.20;;;;;;;2.57;100.00;99912.53;5032150;28;20041;-52
2021/12/02 07:07:05;;;;;;;2.40;0.98;;;;;;;2.96;100.00;99963.03;5032445;28;20040;-51
2021/12/02 07:09:31;;;;;;;2.38;0.93;;;;;;;3.01;100.00;99987.19;5030817;28;20048;-54
2021/12/02 07:11:56;;;;;;;8.20;1.80;;;;;;;3.02;100.00;99981.13;5030737;28;20025;-51
2021/12/02 07:14:23;;;;;;;11.52;1.88;;;;;;;3.07;100.00;99968.91;5031953;28;20061;-53
2021/12/02 07:16:48;;;;;;;9.93;1.60;;;;;;;2.76;100.00;99925.22;5032032;28;20061;-52
2021/12/02 07:19:14;;;;;;;6.82;1.48;;;;;;;3.08;100.00;99970.63;5030850;28;20076;-53
2021/12/02 07:21:40;;;;;;;17.35;2.47;;;;;;;2.98;100.00;99956.06;5030838;28;20053;-52
2021/12/02 07:24:13;;;;;;;4.97;1.40;;;;;;;2.58;100.00;99909.03;5030740;28;20511;-53
2021/12/02 07:26:40;;;;;;;10.48;1.80;;;;;;;2.88;100.00;99972.69;5031953;28;20052;-53
2021/12/02 07:29:07;;;;;;;6.97;1.80;;;;;;;2.83;100.00;99972.75;5031817;28;20030;-55
2021/12/02 07:31:33;;;;;;;9.18;2.03;;;;;;;2.68;100.00;99945.25;5031735;28;20041;-52
2021/12/02 07:34:01;;;;;;;5.63;1.33;;;;;;;2.81;100.00;99931.19;5030517;28;20485;-53
2021/12/02 07:36:28;;;;;;;6.15;1.05;;;;;;;2.95;100.00;99953.53;5031971;28;20046;-56
2021/12/02 07:38:54;;;;;;;5.90;1.05;;;;;;;3.08;100.00;99944.63;5031681;28;20080;-51
2021/12/02 07:41:20;;;;;;;5.85;0.90;;;;;;;3.00;100.00;99962.97;5031762;28;20057;-55
2021/12/02 07:43:45;;;;;;;3.90;0.93;;;;;;;3.29;100.00;100027.50;5031592;28;20030;-53
2021/12/02 07:46:10;;;;;;;7.47;0.77;;;;;;;2.85;100.00;99971.00;5031648;28;20044;-53
2021/12/02 07:48:37;;;;;;;2.78;0.60;;;;;;;2.80;100.00;99993.59;5035501;28;20038;-51
2021/12/02 07:51:07;;;;;;;3.63;0.70;;;;;;;3.02;100.00;100035.72;5035477;28;20481;-54
2021/12/02 07:53:32;;;;;;;1.75;0.60;;;;;;;2.98;100.00;100018.47;5034155;28;20034;-52
2021/12/02 07:56:03;;;;;;;2.67;0.60;;;;;;;2.63;100.00;99975.63;5034420;28;20038;-49
2021/12/02 07:58:29;;;;;;;5.07;1.00;;;;;;;2.61;100.00;99964.41;5034041;28;20108;-51
2021/12/02 08:00:58;;;;;;;3.83;0.88;;;;;;;2.78;100.00;100008.34;5033905;28;20120;-50
2021/12/02 08:03:26;;;;;;;2.95;0.73;;;;;;;2.72;100.00;100032.66;5035076;28;20095;-47
2021/12/02 08:05:51;;;;;;;4.03;0.70;;;;;;;2.31;100.00;99987.34;5033938;28;20040;-48
2021/12/02 08:08:17;;;;;;;3.38;0.65;;;;;;;2.54;100.00;100047.66;5035544;28;20029;-50
2021/12/02 08:10:42;;;;;;;5.00;0.68;;;;;;;2.45;100.00;100043.41;5035298;28;20051;-51
2021/12/02 08:13:07;;;;;;;4.85;0.82;;;;;;;2.37;100.00;100049.56;5035060;28;20122;-52
2021/12/02 08:15:33;;;;;;;9.18;1.17;;;;;;;2.25;100.00;100054.03;5035153;28;20037;-51
2021/12/02 08:17:59;;;;;;;6.18;2.13;;;;;;;2.26;100.00;100066.16;5035151;28;20413;-52
2021/12/02 08:20:27;;;;;;;6.95;2.20;;;;;;;1.89;100.00;99991.28;5034299;28;20056;-52
2021/12/02 08:22:52;;;;;;;5.13;1.08;;;;;;;2.19;100.00;100053.22;5032554;28;20052;-53
2021/12/02 08:25:20;;;;;;;6.30;1.30;;;;;;;1.86;100.00;100002.56;5032414;28;20029;-48
2021/12/02 08:27:45;;;;;;;4.95;1.20;;;;;;;1.83;100.00;100010.38;5033702;28;20036;-53
2021/12/02 08:30:13;;;;;;;4.72;1.30;;;;;;;2.06;100.00;100064.63;5033607;28;20459;-49
2021/12/02 08:32:45;;;;;;;7.05;1.25;;;;;;;2.11;100.00;100075.81;5032448;28;20046;-51
2021/12/02 08:35:11;;;;;;;3.45;0.82;;;;;;;2.20;100.00;100079.19;5033682;28;20033;-53
2021/12/02 08:37:41;;;;;;;6.00;1.30;;;;;;;2.31;100.00;100079.06;5033295;28;20168;-50
2021/12/02 08:40:07;;;;;;;6.10;1.33;;;;;;;2.54;100.00;100104.81;5033187;28;20041;-53
2021/12/02 08:42:32;;;;;;;6.18;1.65;;;;;;;2.39;100.00;100053.03;5032530;28;20103;-55
2021/12/02 08:44:59;;;;;;;4.28;0.75;;;;;;;2.77;100.00;100111.41;5032211;28;20042;-50
2021/12/02 08:47:27;;;;;;;2.58;0.77;;;;;;;2.91;100.00;100118.19;5032170;28;20436;-53
2021/12/02 08:49:53;;;;;;;4.18;1.08;;;;;;;2.90;100.00;100109.53;5015875;28;20072;-54
2021/12/02 08:52:26;;;;;;;7.38;0.88;;;;;;;3.03;100.00;100131.03;5015750;28;20079;-51
2021/12/02 08:54:52;;;;;;;0.93;0.60;;;;;;;2.73;100.00;100073.38;5031925;28;20072;-53
2021/12/02 08:57:19;;;;;;;9.43;0.77;;;;;;;3.08;100.00;100127.50;5032485;28;20072;-51
2021/12/02 08:59:45;;;;;;;5.85;0.80;;;;;;;2.70;100.00;100068.22;5034900;28;20030;-48
2021/12/02 09:02:11;;;;;;;3.90;0.82;;;;;;;2.78;100.00;100075.91;5041230;28;20029;-48
2021/12/02 09:04:37;;;;;;;3.65;0.65;;;;;;;2.71;100.00;100063.88;5034627;28;20365;-51
2021/12/02 09:07:03;;;;;;;4.13;0.77;;;;;;;3.08;100.00;100137.03;5046399;28;20037;-48
2021/12/02 09:09:28;;;;;;;2.63;0.68;;;;;;;3.12;100.00;100131.78;5032878;28;20091;-51
2021/12/02 09:11:55;;;;;;;4.38;1.13;;;;;;;3.08;100.00;100124.03;5032470;28;20048;-49
2021/12/02 09:14:21;;;;;;;4.78;0.85;;;;;;;2.86;100.00;100081.84;5032381;28;20041;-47
2021/12/02 09:16:46;;;;;;;3.15;0.60;;;;;;;3.21;100.00;100130.81;5052359;28;20038;-49
2021/12/02 09:19:12;;;;;;;1.27;0.60;;;;;;;3.30;100.00;100126.31;5052034;28;20416;-50
2021/12/02 09:21:37;;;;;;;3.92;1.17;;;;;;;3.45;100.00;100130.44;5034280;28;20053;-52
2021/12/02 09:24:03;;;;;;;1.50;0.50;;;;;;;3.59;100.00;100135.44;5050538;28;20082;-50
2021/12/02 09:26:28;;;;;;;1.92;0.70;;;;;;;3.63;100.00;100135.38;5050673;28;20029;-49
2021/12/02 09:28:54;;;;;;;2.00;0.70;;;;;;;3.64;100.00;100137.09;5050373;28;20043;-49
2021/12/02 09:31:21;;;;;;;3.75;0.60;;;;;;;3.47;100.00;100105.28;5052003;28;20105;-50
2021/12/02 09:33:46;;;;;;;2.03;0.77;;;;;;;3.93;100.00;100166.13;5052296;28;20060;-52
2021/12/02 09:36:12;;;;;;;5.18;0.63;;;;;;;3.81;100.00;100116.84;5050832;28;20033;-53
2021/12/02 09:38:37;;;;;;;1.95;0.70;;;;;;;4.20;100.00;100174.38;5051969;28;20045;-46
2021/12/02 09:41:03;;;;;;;1.60;0.73;;;;;;;3.96;100.00;100116.59;5052431;28;20064;-49
2021/12/02 09:43:28;;;;;;;1.98;0.50;;;;;;;4.27;100.00;100182.03;5034371;28;20447;-50
2021/12/02 09:45:54;;;;;;;3.63;0.88;;;;;;;4.16;100.00;100163.13;5052078;28;20068;-49
2021/12/02 09:48:19;;;;;;;3.65;1.13;;;;;;;3.82;100.00;100115.94;5052141;28;20480;-52
2021/12/02 09:51:03;;;;;;;2.80;0.70;;;;;;;3.89;100.00;100142.75;5033936;28;20064;-50
2021/12/02 09:53:34;;;;;;;3.45;1.00;;;;;;;3.95;100.00;100140.91;5052190;28;20055;-50
2021/12/02 09:56:16;;;;;;;2.83;0.68;;;;;;;3.80;100.00;100109.91;5051811;28;20033;-47
2021/12/02 09:58:42;;;;;;;4.55;0.90;;;;;;;4.12;100.00;100158.84;5051741;28;20472;-51
2021/12/02 10:01:16;;;;;;;2.65;0.82;;;;;;;4.07;100.00;100116.41;5051750;28;20033;-51
2021/12/02 10:03:45;;;;;;;4.03;0.98;;;;;;;4.71;100.00;100169.94;5050582;28;20025;-51
2021/12/02 10:06:18;;;;;;;2.88;1.23;;;;;;;4.75;100.00;100190.72;5052019;28;20041;-50
2021/12/02 10:09:08;;;;;;;3.00;0.80;;;;;;;4.45;100.00;100139.16;5051604;28;20033;-48
2021/12/02 10:14:23;;;;;;;2.17;0.88;;;;;;;4.13;100.00;100224.81;5051803;28;20099;-47
2021/12/02 10:16:51;;;;;;;2.70;0.73;;;;;;;3.81;100.00;100231.41;5051752;28;20483;-50
2021/12/02 10:19:21;;;;;;;2.40;0.80;;;;;;;3.34;100.00;100189.56;5050307;28;20574;-51
2021/12/02 10:24:44;;;;;;;4.82;0.63;;;;;;;3.24;100.00;100230.41;5055308;28;20040;-51
2021/12/02 10:27:10;;;;;;;5.82;0.90;;;;;;;2.89;100.00;100161.56;5050202;28;20086;-53
2021/12/02 10:29:38;;;;;;;2.35;0.50;;;;;;;3.22;100.00;100231.31;5051340;28;20083;-54
2021/12/02 10:32:25;;;;;;;2.90;0.80;;;;;;;3.08;100.00;100249.72;5051235;28;20111;-55
2021/12/02 10:34:52;;;;;;;3.05;0.75;;;;;;;2.89;100.00;100268.97;5051029;28;20044;-59
2021/12/02 10:37:19;;;;;;;3.40;1.00;;;;;;;2.73;100.00;100290.81;5051610;28;20115;-59
2021/12/02 10:39:58;;;;;;;2.47;0.60;;;;;;;2.51;100.00;100300.50;5051229;28;20075;-60
2021/12/02 10:42:24;;;;;;;3.00;0.88;;;;;;;2.42;100.00;100323.13;5051078;28;20429;-60
2021/12/02 10:44:50;;;;;;;5.38;1.27;;;;;;;2.21;100.00;100293.84;5051161;28;20043;-56
2021/12/02 10:47:16;;;;;;;3.17;0.50;;;;;;;1.87;100.00;100255.16;5051034;28;20111;-62
2021/12/02 10:49:49;;;;;;;3.65;0.88;;;;;;;1.68;100.00;100237.09;5051275;28;20151;-60
2021/12/02 10:52:22;;;;;;;3.22;0.63;;;;;;;2.05;100.00;100315.56;5051305;28;20033;-59
2021/12/02 10:54:51;;;;;;;1.70;0.68;;;;;;;2.03;100.00;100313.84;5049377;28;20380;-60
2021/12/02 10:57:20;;;;;;;2.95;0.63;;;;;;;1.74;100.00;100249.16;5050953;28;20028;-59
2021/12/02 10:59:48;;;;;;;1.95;0.93;;;;;;;1.81;100.00;100256.03;5050941;28;20052;-60
2021/12/02 11:02:24;;;;;;;0.70;0.38;;;;;;;2.04;100.00;100277.50;5051243;28;20033;-60
2021/12/02 11:05:09;;;;;;;1.83;0.60;;;;;;;2.11;100.00;100267.94;5033203;28;20033;-57
2021/12/02 11:07:40;;;;;;;5.28;0.60;;;;;;;2.06;100.00;100259.31;5050993;28;20517;-58
2021/12/02 11:10:15;;;;;;;0.30;0.25;;;;;;;1.99;100.00;100232.53;5049714;28;20037;-58
2021/12/02 11:12:45;;;;;;;1.95;0.60;;;;;;;2.24;100.00;100260.06;5049847;28;20499;-55
2021/12/02 11:15:20;;;;;;;0.55;0.45;;;;;;;2.01;100.00;100225.63;5050578;28;20484;-57
2021/12/02 11:18:06;;;;;;;2.85;0.60;;;;;;;2.38;100.00;100288.50;5049628;28;20508;-58
2021/12/02 11:20:35;;;;;;;4.53;0.60;;;;;;;2.14;100.00;100223.78;5050708;28;20428;-59
2021/12/02 11:23:02;;;;;;;1.98;0.60;;;;;;;2.52;100.00;100258.06;5053955;28;20056;-61
2021/12/02 11:25:28;;;;;;;3.08;0.80;;;;;;;2.59;100.00;100257.16;5053543;28;20032;-60
2021/12/02 11:27:54;;;;;;;3.15;0.73;;;;;;;2.68;100.00;100256.22;5053410;28;20033;-58
2021/12/02 11:30:24;;;;;;;5.88;1.40;;;;;;;2.56;100.00;100225.16;5054854;28;20423;-57
2021/12/02 11:33:11;;;;;;;5.95;1.20;;;;;;;2.59;100.00;100212.13;5055243;28;20029;-59
2021/12/02 11:35:43;;;;;;;4.18;1.90;;;;;;;2.97;100.00;100266.31;5054830;28;20127;-55
2021/12/02 11:38:10;;;;;;;3.60;0.90;;;;;;;3.01;100.00;100267.97;5055085;28;20027;-55
2021/12/02 11:40:42;;;;;;;2.95;1.35;;;;;;;2.71;100.00;100223.25;5054820;28;20037;-57
2021/12/02 11:43:09;;;;;;;3.22;1.58;;;;;;;2.99;100.00;100285.34;5053457;28;20044;-56
2021/12/02 11:45:42;;;;;;;1.80;0.85;;;;;;;2.97;100.00;100287.09;5054651;28;20128;-56
2021/12/02 11:48:08;;;;;;;2.95;0.90;;;;;;;2.51;100.00;100212.19;5054682;28;20033;-56
2021/12/02 11:50:33;;;;;;;2.65;0.90;;;;;;;2.75;100.00;100276.03;5054445;28;20043;-54